Time;durP1;ratioP1;P1;durP2;ratioP2;P2;SDS_P1;SDS_P2;PMS_P1;PMS_P2;Temp;Humidity;BMP_temperature;BMP_pressure;BME280_temperature;BME280_humidity;BME280_pressure;Samples;Min_cycle;Max_cycle;Signal;HPM_P1;HPM_P2
2022/10/10 00:03:42;;;;;;;5.17;2.60;;;10.30;99.90;;;;;;10449779;28;20273;-72
2022/10/10 00:08:43;;;;;;;4.97;2.63;;;10.20;99.90;;;;;;10449538;28;20289;-78
2022/10/10 00:13:45;;;;;;;2.97;2.50;;;10.20;99.90;;;;;;10450127;28;20224;-76
2022/10/10 00:18:45;;;;;;;3.03;2.33;;;10.20;99.90;;;;;;10450869;28;20633;-76
2022/10/10 00:23:46;;;;;;;2.43;2.23;;;10.10;99.90;;;;;;10450635;28;20257;-75
2022/10/10 00:28:47;;;;;;;5.27;2.40;;;10.00;99.90;;;;;;10448481;28;20259;-75
2022/10/10 00:33:48;;;;;;;4.03;2.60;;;9.90;99.90;;;;;;10449686;28;20219;-76
2022/10/10 00:38:48;;;;;;;5.20;2.33;;;9.80;99.90;;;;;;10449952;28;20260;-74
2022/10/10 00:44:10;;;;;;;3.43;2.37;;;9.70;99.90;;;;;;10449109;28;20305;-76
2022/10/10 00:49:15;;;;;;;3.53;2.33;;;9.60;99.90;;;;;;10448772;28;20255;-76
2022/10/10 00:54:19;;;;;;;4.00;2.57;;;9.50;99.90;;;;;;10447567;28;20236;-76
2022/10/10 00:59:21;;;;;;;4.37;2.40;;;9.40;99.90;;;;;;10448160;28;20311;-75
2022/10/10 01:04:30;;;;;;;3.60;2.70;;;9.40;99.90;;;;;;10448438;28;20244;-75
2022/10/10 01:09:33;;;;;;;4.27;2.60;;;9.30;99.90;;;;;;10456876;28;20281;-74
2022/10/10 01:14:45;;;;;;;4.13;2.87;;;9.20;99.90;;;;;;10446245;28;20235;-74
2022/10/10 01:20:22;;;;;;;3.43;2.77;;;9.20;99.90;;;;;;10447355;28;20818;-75
2022/10/10 01:25:30;;;;;;;3.83;2.83;;;9.10;99.90;;;;;;10404880;28;20702;-74
2022/10/10 01:30:33;;;;;;;3.40;2.70;;;9.00;99.90;;;;;;10438301;28;20591;-77
2022/10/10 01:35:54;;;;;;;3.80;2.60;;;8.90;99.90;;;;;;10405043;28;20232;-76
2022/10/10 01:41:14;;;;;;;3.63;2.80;;;8.90;99.90;;;;;;10412763;28;20372;-74
2022/10/10 01:46:17;;;;;;;3.33;3.03;;;8.80;99.90;;;;;;10446119;28;20263;-73
2022/10/10 01:51:55;;;;;;;7.30;2.80;;;8.80;99.90;;;;;;10462501;28;20215;-74
2022/10/10 01:57:15;;;;;;;3.57;2.93;;;8.80;99.90;;;;;;10445582;28;20297;-76
2022/10/10 02:02:35;;;;;;;5.10;3.20;;;8.70;99.90;;;;;;10446028;28;20227;-75
2022/10/10 02:07:46;;;;;;;3.33;3.00;;;8.70;99.90;;;;;;10442327;28;20695;-73
2022/10/10 02:12:48;;;;;;;3.70;3.20;;;8.70;99.90;;;;;;10445289;28;20222;-74
2022/10/10 02:17:50;;;;;;;4.00;3.20;;;8.60;99.90;;;;;;10445550;28;20262;-74
2022/10/10 02:22:54;;;;;;;4.20;2.97;;;8.60;99.90;;;;;;10446252;28;20643;-74
2022/10/10 02:28:12;;;;;;;6.20;3.17;;;8.60;99.90;;;;;;10445930;28;20586;-74
2022/10/10 02:33:21;;;;;;;4.20;3.40;;;8.60;99.90;;;;;;10446237;28;20305;-74
2022/10/10 02:38:23;;;;;;;4.37;3.13;;;8.60;99.90;;;;;;10444775;28;20253;-75
2022/10/10 02:43:24;;;;;;;4.03;3.13;;;8.50;99.90;;;;;;10446004;28;20224;-78
2022/10/10 02:48:24;;;;;;;3.77;3.20;;;8.50;99.90;;;;;;10445867;28;20222;-74
2022/10/10 02:53:25;;;;;;;4.63;3.27;;;8.50;99.90;;;;;;10450362;28;20240;-75
2022/10/10 02:58:29;;;;;;;6.70;2.90;;;8.50;99.90;;;;;;10468727;28;20220;-76
2022/10/10 03:03:30;;;;;;;5.00;3.00;;;8.50;99.90;;;;;;10445967;28;20710;-74
2022/10/10 03:08:30;;;;;;;4.07;3.30;;;8.50;99.90;;;;;;10451719;28;20267;-73
2022/10/10 03:13:31;;;;;;;6.27;4.30;;;8.40;99.90;;;;;;10450812;28;20235;-76
2022/10/10 03:18:32;;;;;;;3.97;3.50;;;8.50;99.90;;;;;;10449617;28;20288;-75
2022/10/10 03:23:34;;;;;;;3.57;2.93;;;8.40;99.90;;;;;;10423561;28;20221;-76
2022/10/10 03:28:36;;;;;;;5.57;3.03;;;8.40;99.90;;;;;;10439293;28;20309;-74
2022/10/10 03:33:37;;;;;;;3.80;3.33;;;8.40;99.90;;;;;;10450957;28;20237;-77
2022/10/10 03:38:40;;;;;;;7.00;3.53;;;8.30;99.90;;;;;;10451534;28;20227;-76
2022/10/10 03:43:41;;;;;;;3.67;3.10;;;8.20;99.90;;;;;;10451380;28;20223;-76
2022/10/10 03:48:42;;;;;;;4.03;2.90;;;8.20;99.90;;;;;;10452332;28;20257;-75
2022/10/10 03:53:42;;;;;;;4.67;3.60;;;8.20;99.90;;;;;;10450820;28;20284;-73
2022/10/10 03:58:43;;;;;;;6.30;3.77;;;8.10;99.90;;;;;;10450944;28;20219;-74
2022/10/10 04:03:43;;;;;;;6.07;4.23;;;8.00;99.90;;;;;;10449797;28;20231;-76
2022/10/10 04:08:44;;;;;;;6.83;4.80;;;8.00;99.90;;;;;;10451340;28;20227;-74
2022/10/10 04:13:47;;;;;;;5.03;3.77;;;8.00;99.90;;;;;;10449453;28;20230;-75
2022/10/10 04:18:48;;;;;;;4.20;3.60;;;7.90;99.90;;;;;;10450788;28;20226;-75
2022/10/10 04:23:49;;;;;;;5.67;3.50;;;7.80;99.90;;;;;;10446055;28;20232;-74
2022/10/10 04:28:49;;;;;;;6.67;3.87;;;7.80;99.90;;;;;;10465782;28;20642;-74
2022/10/10 04:33:51;;;;;;;5.17;3.20;;;7.70;99.90;;;;;;10448958;28;20384;-75
2022/10/10 04:38:52;;;;;;;3.63;3.13;;;7.70;99.90;;;;;;10462390;28;20678;-75
2022/10/10 04:43:53;;;;;;;4.57;3.30;;;7.70;99.90;;;;;;10447735;28;20222;-74
2022/10/10 04:48:53;;;;;;;3.80;3.40;;;7.70;99.90;;;;;;10463261;28;20235;-76
2022/10/10 04:53:54;;;;;;;5.73;3.30;;;7.70;99.90;;;;;;10445904;28;20227;-74
2022/10/10 04:58:54;;;;;;;6.87;3.17;;;7.60;99.90;;;;;;10446273;28;20640;-74
2022/10/10 05:03:55;;;;;;;5.13;3.33;;;7.60;99.90;;;;;;10446410;28;20223;-75
2022/10/10 05:08:55;;;;;;;6.87;4.00;;;7.60;99.90;;;;;;10448483;28;20276;-75
2022/10/10 05:13:56;;;;;;;7.00;4.00;;;7.60;99.90;;;;;;10446470;28;20250;-74
2022/10/10 05:18:56;;;;;;;3.83;3.37;;;7.60;99.90;;;;;;10447662;28;20218;-70
2022/10/10 05:23:57;;;;;;;5.23;3.60;;;7.60;99.90;;;;;;10444983;28;20815;-70
2022/10/10 05:28:58;;;;;;;4.90;3.67;;;7.60;99.90;;;;;;10440463;28;20216;-69
2022/10/10 05:33:59;;;;;;;7.73;4.10;;;7.60;99.90;;;;;;10437379;28;20621;-70
2022/10/10 05:39:01;;;;;;;6.13;3.73;;;7.60;99.90;;;;;;10438928;28;20264;-69
2022/10/10 05:44:01;;;;;;;8.80;4.10;;;7.60;99.90;;;;;;10437427;28;20231;-70
2022/10/10 05:49:02;;;;;;;5.90;4.10;;;7.60;99.90;;;;;;10444378;28;20230;-70
2022/10/10 05:54:04;;;;;;;6.87;4.57;;;7.60;99.90;;;;;;10446518;28;20219;-70
2022/10/10 05:59:04;;;;;;;8.70;4.83;;;7.60;99.90;;;;;;10446088;28;20698;-70
2022/10/10 06:04:05;;;;;;;8.37;4.63;;;7.60;99.90;;;;;;10446316;28;20271;-69
2022/10/10 06:09:06;;;;;;;7.97;5.10;;;7.80;99.90;;;;;;10444740;28;20220;-69
2022/10/10 06:14:07;;;;;;;7.83;4.73;;;7.90;99.90;;;;;;10445213;28;20215;-69
2022/10/10 06:19:08;;;;;;;8.20;5.20;;;8.10;99.90;;;;;;10453390;28;20215;-73
2022/10/10 06:24:09;;;;;;;6.27;3.93;;;8.30;99.90;;;;;;10445671;28;20288;-73
2022/10/10 06:29:10;;;;;;;7.43;5.33;;;8.30;99.90;;;;;;10450222;28;20245;-75
2022/10/10 06:34:11;;;;;;;10.10;4.70;;;8.50;99.90;;;;;;10452513;28;20770;-75
2022/10/10 06:39:11;;;;;;;7.73;5.30;;;8.70;99.90;;;;;;10458133;28;20211;-75
2022/10/10 06:44:12;;;;;;;7.87;5.07;;;9.00;99.90;;;;;;10453477;28;20219;-75
2022/10/10 06:49:13;;;;;;;5.87;4.50;;;9.50;99.90;;;;;;10452067;28;20285;-74
2022/10/10 06:54:14;;;;;;;8.47;4.90;;;10.00;99.90;;;;;;10450031;28;20212;-75
2022/10/10 06:59:14;;;;;;;5.67;4.70;;;10.80;99.90;;;;;;10453660;28;20239;-73
2022/10/10 07:04:15;;;;;;;6.17;4.87;;;11.20;99.90;;;;;;10453783;28;20227;-73
2022/10/10 07:09:17;;;;;;;6.37;4.97;;;11.10;99.90;;;;;;10454194;28;20216;-74
2022/10/10 07:14:18;;;;;;;8.80;5.60;;;11.10;99.90;;;;;;10451178;28;20591;-74
2022/10/10 07:19:20;;;;;;;8.30;4.80;;;11.30;99.90;;;;;;10450378;28;20211;-74
2022/10/10 07:24:21;;;;;;;5.63;4.80;;;12.30;99.90;;;;;;10450442;28;20224;-75
2022/10/10 07:29:23;;;;;;;7.03;4.40;;;12.70;99.90;;;;;;10451213;28;20209;-74
2022/10/10 07:34:24;;;;;;;6.67;4.63;;;12.70;99.90;;;;;;10450419;28;20731;-75
2022/10/10 07:39:25;;;;;;;7.17;4.33;;;13.10;99.90;;;;;;10449864;28;20320;-74
2022/10/10 07:44:25;;;;;;;7.53;4.10;;;13.30;99.90;;;;;;10450164;28;20221;-75
2022/10/10 07:49:26;;;;;;;8.90;3.90;;;14.80;99.90;;;;;;10449275;28;20319;-73
2022/10/10 07:54:27;;;;;;;4.97;3.60;;;18.00;99.90;;;;;;10450161;28;20215;-74
2022/10/10 07:59:28;;;;;;;6.57;4.00;;;20.90;99.90;;;;;;10450781;28;20234;-75
2022/10/10 08:04:28;;;;;;;4.93;3.93;;;19.50;97.80;;;;;;10450692;28;20214;-74
2022/10/10 08:09:29;;;;;;;5.53;3.70;;;17.70;99.90;;;;;;10448691;28;20219;-76
2022/10/10 08:14:30;;;;;;;5.40;4.00;;;16.80;99.90;;;;;;10448579;28;20689;-75
2022/10/10 08:19:30;;;;;;;5.73;3.70;;;16.10;99.90;;;;;;10448828;28;20210;-75
2022/10/10 08:24:32;;;;;;;5.77;4.03;;;15.50;99.90;;;;;;10449312;28;20287;-74
2022/10/10 08:29:32;;;;;;;6.20;3.70;;;15.70;99.90;;;;;;10443111;28;20218;-75
2022/10/10 08:34:33;;;;;;;5.17;3.93;;;16.20;99.90;;;;;;10449090;28;20230;-75
2022/10/10 08:39:33;;;;;;;5.37;4.00;;;19.00;99.90;;;;;;10448745;28;20224;-76
2022/10/10 08:44:44;;;;;;;4.60;3.80;;;21.10;98.90;;;;;;10448902;28;20299;-76
2022/10/10 08:50:13;;;;;;;6.07;3.93;;;24.30;88.20;;;;;;10447614;28;20255;-76
2022/10/10 08:55:32;;;;;;;4.60;3.63;;;27.10;65.70;;;;;;10437092;28;20236;-74
2022/10/10 09:00:38;;;;;;;5.00;3.63;;;29.40;54.50;;;;;;10451579;28;20211;-75
2022/10/10 09:05:42;;;;;;;4.67;3.70;;;30.60;48.90;;;;;;10438124;28;20249;-75
2022/10/10 09:11:08;;;;;;;6.67;3.90;;;31.30;46.20;;;;;;10446754;28;20236;-75
2022/10/10 09:16:41;;;;;;;4.37;3.20;;;32.00;43.70;;;;;;10443393;28;20324;-76
2022/10/10 09:21:43;;;;;;;6.93;3.40;;;32.60;42.90;;;;;;10443817;28;20307;-74
2022/10/10 09:26:50;;;;;;;7.00;4.30;;;32.90;41.40;;;;;;10445917;28;20230;-75
2022/10/10 09:31:59;;;;;;;4.67;3.77;;;30.80;43.40;;;;;;10446587;28;20230;-75
2022/10/10 09:37:02;;;;;;;5.83;3.97;;;28.40;48.30;;;;;;10448571;28;20227;-75
2022/10/10 09:42:16;;;;;;;7.77;4.40;;;26.10;52.30;;;;;;10445347;28;20254;-74
2022/10/10 09:47:17;;;;;;;7.43;4.33;;;24.00;57.60;;;;;;10446196;28;20255;-75
2022/10/10 09:52:26;;;;;;;9.43;4.53;;;22.80;62.80;;;;;;10445821;28;20221;-74
2022/10/10 09:57:34;;;;;;;6.67;4.20;;;23.00;64.70;;;;;;10446029;28;20387;-75
2022/10/10 10:02:38;;;;;;;6.80;3.63;;;25.30;58.70;;;;;;10438995;28;20219;-75
2022/10/10 10:07:46;;;;;;;6.87;4.63;;;29.20;51.80;;;;;;10444977;28;20266;-73
2022/10/10 10:12:48;;;;;;;12.83;4.17;;;31.70;46.50;;;;;;10447183;28;20315;-73
2022/10/10 10:18:16;;;;;;;6.50;4.00;;;33.40;43.50;;;;;;10443346;28;20235;-74
2022/10/10 10:23:39;;;;;;;6.07;4.00;;;34.20;42.60;;;;;;10446116;28;20216;-74
2022/10/10 10:28:40;;;;;;;6.23;3.80;;;34.90;40.70;;;;;;10438810;28;20574;-75
2022/10/10 10:34:15;;;;;;;7.33;4.00;;;34.90;40.50;;;;;;10444559;28;20228;-75
2022/10/10 10:39:37;;;;;;;5.43;4.00;;;35.30;40.40;;;;;;10410837;28;20619;-73
2022/10/10 10:45:15;;;;;;;6.13;4.33;;;35.50;39.50;;;;;;10436725;28;20220;-71
2022/10/10 10:50:25;;;;;;;4.57;3.33;;;35.80;40.20;;;;;;10441126;28;20656;-74
2022/10/10 10:55:35;;;;;;;7.70;4.13;;;36.70;38.80;;;;;;10436270;28;20597;-76
2022/10/10 11:01:03;;;;;;;9.00;4.50;;;36.00;39.70;;;;;;10428263;28;20585;-75
2022/10/10 11:06:57;;;;;;;6.50;4.03;;;35.20;39.70;;;;;;10425892;28;20228;-77
2022/10/10 11:12:05;;;;;;;6.03;4.80;;;34.70;40.20;;;;;;10360129;28;20228;-75
2022/10/10 11:17:28;;;;;;;8.87;4.60;;;30.20;47.20;;;;;;10441686;28;20242;-76
2022/10/10 11:22:48;;;;;;;7.53;4.60;;;26.30;55.60;;;;;;10435684;28;20229;-75
2022/10/10 11:27:56;;;;;;;7.20;4.43;;;23.80;63.70;;;;;;10432522;28;20306;-76
2022/10/10 11:33:18;;;;;;;8.33;4.73;;;22.50;70.20;;;;;;10440804;28;20231;-74
2022/10/10 11:39:08;;;;;;;8.23;4.50;;;21.70;73.80;;;;;;10441667;28;20227;-75
2022/10/10 11:44:12;;;;;;;9.43;4.57;;;21.10;78.40;;;;;;10428439;28;20220;-75
2022/10/10 11:49:13;;;;;;;7.90;4.20;;;20.70;82.70;;;;;;10444835;28;20294;-76
2022/10/10 11:54:28;;;;;;;7.67;5.00;;;20.60;83.20;;;;;;10456287;28;20224;-74
2022/10/10 11:59:50;;;;;;;5.40;4.07;;;20.40;85.20;;;;;;10440694;28;20207;-75
2022/10/10 12:04:51;;;;;;;10.07;4.50;;;20.30;88.90;;;;;;10444350;28;20223;-75
2022/10/10 12:09:59;;;;;;;9.30;4.37;;;20.40;90.50;;;;;;10438968;28;20245;-74
2022/10/10 12:15:02;;;;;;;9.77;4.47;;;20.40;91.20;;;;;;10437054;28;20644;-75
2022/10/10 12:20:25;;;;;;;12.37;5.80;;;20.30;92.00;;;;;;10435152;28;20909;-75
2022/10/10 12:25:44;;;;;;;8.87;5.03;;;20.30;93.60;;;;;;10440295;28;20231;-75
2022/10/10 12:30:53;;;;;;;12.10;4.40;;;20.30;94.30;;;;;;10438168;28;20226;-74
2022/10/10 12:35:54;;;;;;;9.73;4.57;;;20.40;95.50;;;;;;10438614;28;20234;-75
2022/10/10 12:41:06;;;;;;;11.10;5.90;;;20.50;95.60;;;;;;10433490;28;20224;-75
2022/10/10 12:46:20;;;;;;;12.50;4.90;;;20.30;96.10;;;;;;10437593;28;21942;-75
2022/10/10 12:51:22;;;;;;;9.10;4.60;;;20.20;97.30;;;;;;10437310;28;20822;-75
2022/10/10 12:56:39;;;;;;;11.90;4.67;;;20.20;98.00;;;;;;10432922;28;20421;-76
2022/10/10 13:01:46;;;;;;;12.57;4.57;;;20.20;98.80;;;;;;10439644;28;20927;-75
2022/10/10 13:06:50;;;;;;;8.03;4.27;;;20.20;99.00;;;;;;10439226;28;20272;-75
2022/10/10 13:12:02;;;;;;;8.27;4.20;;;20.10;99.90;;;;;;10433303;28;20227;-76
2022/10/10 13:17:22;;;;;;;7.37;4.20;;;20.30;99.90;;;;;;10437534;28;20798;-76
2022/10/10 13:22:24;;;;;;;12.13;4.17;;;20.60;99.90;;;;;;10446229;28;20242;-76
2022/10/10 13:27:29;;;;;;;9.70;3.60;;;20.90;99.70;;;;;;10434767;28;20234;-76
2022/10/10 13:32:34;;;;;;;7.83;3.30;;;21.10;98.80;;;;;;10438562;28;20250;-75
2022/10/10 13:37:35;;;;;;;10.83;3.40;;;21.30;98.10;;;;;;10431326;28;20232;-76
2022/10/10 13:42:38;;;;;;;9.63;3.50;;;21.40;98.20;;;;;;10425820;28;20219;-77
2022/10/10 13:47:48;;;;;;;11.40;3.50;;;21.30;98.00;;;;;;10429761;28;20223;-76
2022/10/10 13:52:49;;;;;;;7.33;3.80;;;20.90;98.60;;;;;;10439291;28;20238;-78
2022/10/10 13:57:54;;;;;;;9.47;3.27;;;20.80;99.50;;;;;;10435173;28;20230;-78
2022/10/10 14:02:55;;;;;;;11.63;3.40;;;20.80;99.60;;;;;;10438018;28;20220;-76
2022/10/10 14:07:56;;;;;;;14.80;3.47;;;20.90;99.90;;;;;;10435404;28;20229;-76
2022/10/10 14:13:00;;;;;;;12.57;3.40;;;21.00;98.90;;;;;;10427484;28;20301;-77
2022/10/10 14:18:02;;;;;;;9.73;3.27;;;21.10;99.30;;;;;;10428867;28;20305;-76
2022/10/10 14:23:03;;;;;;;10.27;3.50;;;21.10;99.30;;;;;;10437817;28;20216;-77
2022/10/10 14:28:04;;;;;;;9.67;3.60;;;20.90;99.80;;;;;;10435910;28;20687;-77
2022/10/10 14:33:11;;;;;;;8.10;3.43;;;20.70;99.90;;;;;;10435695;28;20222;-76
2022/10/10 14:38:12;;;;;;;9.63;3.50;;;20.60;99.90;;;;;;10424461;28;20259;-74
2022/10/10 14:43:13;;;;;;;8.27;3.23;;;20.40;99.90;;;;;;10428982;28;20226;-75
2022/10/10 14:48:13;;;;;;;10.20;3.27;;;20.40;99.90;;;;;;10435155;28;20227;-76
2022/10/10 14:53:15;;;;;;;9.57;3.50;;;20.30;99.90;;;;;;10442642;28;20223;-76
2022/10/10 14:58:18;;;;;;;9.07;3.20;;;20.40;99.90;;;;;;10447560;28;20239;-76
2022/10/10 15:03:19;;;;;;;12.93;4.43;;;20.50;99.90;;;;;;10446783;28;20224;-75
2022/10/10 15:08:20;;;;;;;10.50;3.83;;;20.70;99.90;;;;;;10436171;28;20763;-75
2022/10/10 15:13:20;;;;;;;12.27;3.63;;;20.80;99.90;;;;;;10448300;28;20215;-76
2022/10/10 15:18:21;;;;;;;9.93;3.40;;;20.70;99.90;;;;;;10442133;28;20242;-77
2022/10/10 15:23:22;;;;;;;13.33;3.60;;;20.50;99.90;;;;;;10442261;28;20239;-74
2022/10/10 15:28:22;;;;;;;9.20;3.40;;;20.20;99.90;;;;;;10442819;28;20226;-80
2022/10/10 15:33:23;;;;;;;9.43;3.50;;;20.00;99.90;;;;;;10438261;28;20242;-79
2022/10/10 15:38:24;;;;;;;11.33;4.00;;;19.80;99.90;;;;;;10443999;28;20235;-78
2022/10/10 15:43:26;;;;;;;7.53;3.63;;;19.70;99.90;;;;;;10438560;28;20249;-77
2022/10/10 15:48:27;;;;;;;12.43;3.40;;;19.60;99.90;;;;;;10443407;28;20317;-76
2022/10/10 15:53:27;;;;;;;7.97;3.23;;;19.50;99.90;;;;;;10455000;28;20215;-76
2022/10/10 15:58:28;;;;;;;9.27;3.73;;;19.40;99.90;;;;;;10432389;28;20224;-77
2022/10/10 16:03:29;;;;;;;9.40;3.67;;;19.20;99.90;;;;;;10449561;28;20841;-74
2022/10/10 16:08:29;;;;;;;11.70;3.50;;;19.10;99.90;;;;;;10442268;28;20223;-75
2022/10/10 16:13:32;;;;;;;10.40;4.43;;;19.00;99.90;;;;;;10445713;28;20610;-74
2022/10/10 16:18:35;;;;;;;9.30;3.60;;;19.00;99.90;;;;;;10434085;28;20234;-73
2022/10/10 16:23:36;;;;;;;10.10;4.60;;;18.90;99.90;;;;;;10439502;28;20265;-74
2022/10/10 16:28:37;;;;;;;8.80;4.20;;;18.70;99.90;;;;;;10437241;28;20227;-73
2022/10/10 16:33:39;;;;;;;9.30;4.17;;;18.50;99.90;;;;;;10433461;28;20290;-72
2022/10/10 16:38:40;;;;;;;9.03;4.23;;;18.10;99.90;;;;;;10436518;28;20264;-71
2022/10/10 16:43:43;;;;;;;6.30;3.80;;;17.80;99.90;;;;;;10440025;28;20304;-72
2022/10/10 16:48:44;;;;;;;5.63;3.70;;;17.70;99.90;;;;;;10430653;28;20364;-73
2022/10/10 16:53:46;;;;;;;11.90;4.93;;;17.60;99.90;;;;;;10444206;28;20244;-73
2022/10/10 16:58:46;;;;;;;14.37;6.83;;;17.60;99.90;;;;;;10436175;28;20234;-72
2022/10/10 17:03:48;;;;;;;11.77;6.43;;;17.50;99.90;;;;;;10430530;28;20226;-72
2022/10/10 17:08:54;;;;;;;9.77;6.50;;;17.50;99.90;;;;;;10435398;28;20210;-72
2022/10/10 17:13:56;;;;;;;11.57;5.30;;;17.50;99.90;;;;;;10443058;28;20225;-73
2022/10/10 17:18:59;;;;;;;13.63;5.20;;;17.50;99.90;;;;;;10446879;28;20222;-74
2022/10/10 17:23:59;;;;;;;11.13;5.90;;;17.50;99.90;;;;;;10447144;28;20644;-72
2022/10/10 17:29:01;;;;;;;11.83;5.03;;;17.40;99.90;;;;;;10447071;28;20230;-74
2022/10/10 17:34:02;;;;;;;9.70;5.70;;;17.40;99.90;;;;;;10446405;28;20225;-73
2022/10/10 17:39:03;;;;;;;15.47;5.43;;;17.40;99.90;;;;;;10446753;28;20212;-74
2022/10/10 17:44:04;;;;;;;13.43;5.97;;;17.40;99.90;;;;;;10445668;28;20327;-72
2022/10/10 17:49:07;;;;;;;11.70;5.97;;;17.40;99.90;;;;;;10446442;28;20302;-72
2022/10/10 17:54:08;;;;;;;16.13;5.00;;;17.30;99.90;;;;;;10445028;28;20795;-73
2022/10/10 17:59:12;;;;;;;17.13;5.20;;;17.30;99.90;;;;;;10445314;28;20260;-70
2022/10/10 18:04:14;;;;;;;10.90;4.80;;;17.20;99.90;;;;;;10441346;28;20256;-69
2022/10/10 18:09:15;;;;;;;15.93;6.23;;;17.20;99.90;;;;;;10445866;28;20279;-68
2022/10/10 18:14:15;;;;;;;17.30;6.77;;;17.10;99.90;;;;;;10443722;28;20293;-70
2022/10/10 18:19:19;;;;;;;12.57;5.53;;;17.00;99.90;;;;;;10444961;28;20209;-67
2022/10/10 18:24:19;;;;;;;13.43;5.80;;;16.90;99.90;;;;;;10450671;28;20307;-74
2022/10/10 18:29:20;;;;;;;12.73;6.37;;;16.80;99.90;;;;;;10454694;28;20221;-74
2022/10/10 18:34:21;;;;;;;12.13;6.87;;;16.70;99.90;;;;;;10453353;28;20232;-73
2022/10/10 18:39:21;;;;;;;15.53;7.20;;;16.60;99.90;;;;;;10454032;28;20223;-75
2022/10/10 18:44:22;;;;;;;11.73;6.50;;;16.60;99.90;;;;;;10452158;28;20237;-75
2022/10/10 18:49:24;;;;;;;10.23;7.10;;;16.50;99.90;;;;;;10452472;28;20722;-74
2022/10/10 18:54:26;;;;;;;10.47;6.30;;;16.40;99.90;;;;;;10451989;28;20229;-74
2022/10/10 18:59:27;;;;;;;14.30;6.47;;;16.40;99.90;;;;;;10450817;28;20703;-76
2022/10/10 19:04:27;;;;;;;12.83;6.73;;;16.30;99.90;;;;;;10450563;28;20223;-76
2022/10/10 19:09:28;;;;;;;14.20;8.17;;;16.30;99.90;;;;;;10451301;28;20212;-76
2022/10/10 19:14:29;;;;;;;13.67;7.87;;;16.30;99.90;;;;;;10447283;28;20224;-75
2022/10/10 19:19:30;;;;;;;17.23;7.10;;;16.30;99.90;;;;;;10450502;28;20221;-74
2022/10/10 19:24:31;;;;;;;12.97;5.87;;;16.30;99.90;;;;;;10453247;28;20270;-72
2022/10/10 19:29:32;;;;;;;15.27;6.10;;;16.20;99.90;;;;;;10447258;28;20300;-74
2022/10/10 19:34:32;;;;;;;14.40;5.97;;;16.20;99.90;;;;;;10452369;28;20222;-73
2022/10/10 19:39:33;;;;;;;14.53;5.80;;;16.20;99.90;;;;;;10453262;28;20214;-78
2022/10/10 19:44:34;;;;;;;14.60;5.50;;;16.10;99.90;;;;;;10454795;28;20223;-75
2022/10/10 19:49:34;;;;;;;11.53;5.23;;;15.90;99.90;;;;;;10450994;28;20226;-75
2022/10/10 19:54:35;;;;;;;14.00;4.60;;;15.80;99.90;;;;;;10452594;28;20223;-77
2022/10/10 19:59:35;;;;;;;9.77;5.20;;;15.70;99.90;;;;;;10451091;28;20275;-78
2022/10/10 20:04:36;;;;;;;10.20;4.57;;;15.60;99.90;;;;;;10451449;28;20315;-75
2022/10/10 20:09:37;;;;;;;10.70;5.13;;;15.50;99.90;;;;;;10450384;28;20219;-79
2022/10/10 20:14:40;;;;;;;11.03;5.30;;;15.40;99.90;;;;;;10440627;28;20230;-73
2022/10/10 20:19:41;;;;;;;12.13;5.77;;;15.40;99.90;;;;;;10451619;28;20219;-75
2022/10/10 20:24:42;;;;;;;12.27;5.80;;;15.30;99.90;;;;;;10449663;28;20245;-72
2022/10/10 20:29:42;;;;;;;19.43;5.50;;;15.30;99.90;;;;;;10450238;28;20235;-72
2022/10/10 20:34:44;;;;;;;11.47;5.57;;;15.40;99.90;;;;;;10447822;28;20223;-72
2022/10/10 20:39:45;;;;;;;12.57;5.10;;;15.30;99.90;;;;;;10448692;28;20213;-72
2022/10/10 20:44:48;;;;;;;14.43;6.23;;;15.30;99.90;;;;;;10448506;28;20220;-71
2022/10/10 20:49:50;;;;;;;12.37;4.97;;;15.20;99.90;;;;;;10449451;28;20217;-73
2022/10/10 20:54:51;;;;;;;17.27;6.73;;;15.20;99.90;;;;;;10448292;28;20695;-72
2022/10/10 20:59:54;;;;;;;13.40;5.90;;;15.20;99.90;;;;;;10449218;28;20214;-73
2022/10/10 21:04:55;;;;;;;16.57;6.93;;;15.20;99.90;;;;;;10447454;28;20279;-72
2022/10/10 21:09:57;;;;;;;11.80;5.73;;;15.20;99.90;;;;;;10447691;28;20494;-72
2022/10/10 21:15:01;;;;;;;16.67;5.80;;;15.10;99.90;;;;;;10446635;28;20229;-72
2022/10/10 21:20:01;;;;;;;13.03;5.43;;;15.10;99.90;;;;;;10447542;28;20213;-72
2022/10/10 21:25:02;;;;;;;14.80;5.67;;;15.10;99.90;;;;;;10448703;28;20221;-73
2022/10/10 21:30:03;;;;;;;12.83;5.67;;;15.10;99.90;;;;;;10448089;28;20220;-74
2022/10/10 21:35:04;;;;;;;11.73;6.90;;;15.10;99.90;;;;;;10447541;28;20225;-74
2022/10/10 21:40:05;;;;;;;7.17;5.10;;;15.10;99.90;;;;;;10446783;28;20226;-73
2022/10/10 21:45:07;;;;;;;12.97;5.80;;;15.20;99.90;;;;;;10448020;28;20189;-73
2022/10/10 21:50:08;;;;;;;12.60;5.53;;;15.20;99.90;;;;;;10447779;28;20249;-72
2022/10/10 21:55:08;;;;;;;12.90;6.57;;;15.10;99.90;;;;;;10447949;28;20205;-73
2022/10/10 22:00:10;;;;;;;10.50;5.77;;;15.10;99.90;;;;;;10445863;28;20188;-73
2022/10/10 22:05:12;;;;;;;12.27;6.20;;;15.10;99.90;;;;;;10446880;28;20239;-75
2022/10/10 22:10:15;;;;;;;10.57;5.67;;;15.10;99.90;;;;;;10446447;28;20213;-75
2022/10/10 22:15:16;;;;;;;11.00;5.33;;;15.10;99.90;;;;;;10445792;28;20223;-74
2022/10/10 22:20:16;;;;;;;10.63;5.83;;;15.10;99.90;;;;;;10461629;28;20180;-72
2022/10/10 22:25:17;;;;;;;16.37;6.77;;;15.10;99.90;;;;;;10445449;28;20308;-74
2022/10/10 22:30:18;;;;;;;11.27;6.40;;;15.10;99.90;;;;;;10446923;28;20218;-70
2022/10/10 22:35:18;;;;;;;14.30;6.67;;;15.10;99.90;;;;;;10445811;28;20286;-74
2022/10/10 22:40:21;;;;;;;12.97;6.27;;;15.10;99.90;;;;;;10446088;28;20176;-74
2022/10/10 22:45:22;;;;;;;11.00;5.80;;;15.10;99.90;;;;;;10446834;28;20750;-74
2022/10/10 22:50:23;;;;;;;13.90;6.43;;;15.10;99.90;;;;;;10460578;28;20181;-73
2022/10/10 22:55:23;;;;;;;14.17;7.07;;;15.10;99.90;;;;;;10444695;28;20727;-74
2022/10/10 23:00:24;;;;;;;12.67;6.73;;;15.10;99.90;;;;;;10447006;28;20225;-73
2022/10/10 23:05:25;;;;;;;11.03;6.90;;;15.00;99.90;;;;;;10445895;28;20487;-74
2022/10/10 23:10:25;;;;;;;12.60;6.73;;;15.00;99.90;;;;;;10448496;28;20225;-74
2022/10/10 23:15:26;;;;;;;12.03;7.10;;;15.00;99.90;;;;;;10453446;28;20214;-74
2022/10/10 23:20:30;;;;;;;13.00;6.83;;;15.00;99.90;;;;;;10454024;28;20220;-73
2022/10/10 23:25:30;;;;;;;14.00;6.67;;;15.00;99.90;;;;;;10452849;28;20304;-75
2022/10/10 23:30:31;;;;;;;11.50;6.73;;;14.90;99.90;;;;;;10451874;28;20260;-76
2022/10/10 23:35:32;;;;;;;13.10;6.80;;;14.90;99.90;;;;;;10451553;28;20236;-74
2022/10/10 23:40:32;;;;;;;12.10;6.33;;;14.90;99.90;;;;;;10445390;28;20223;-72
2022/10/10 23:45:39;;;;;;;14.53;6.80;;;14.80;99.90;;;;;;10452201;28;20340;-73
2022/10/10 23:50:39;;;;;;;9.00;6.77;;;14.80;99.90;;;;;;10452593;28;20232;-76
2022/10/10 23:55:40;;;;;;;13.00;7.23;;;14.70;99.90;;;;;;10452434;28;20245;-76
